sensor_id;sensor_type;location;lat;lon;timestamp;P1;durP1;ratioP1;P2;durP2;ratioP2
12776;SDS011;6452;41.572;23.732;2023-08-06T00:02:00;5.13;;;4.25;;
12776;SDS011;6452;41.572;23.732;2023-08-06T00:04:26;5.20;;;4.82;;
12776;SDS011;6452;41.572;23.732;2023-08-06T00:06:52;4.80;;;4.35;;
12776;SDS011;6452;41.572;23.732;2023-08-06T00:09:17;4.90;;;4.60;;
12776;SDS011;6452;41.572;23.732;2023-08-06T00:11:43;5.45;;;5.05;;
12776;SDS011;6452;41.572;23.732;2023-08-06T00:14:09;4.95;;;4.57;;
12776;SDS011;6452;41.572;23.732;2023-08-06T00:16:35;4.78;;;4.47;;
12776;SDS011;6452;41.572;23.732;2023-08-06T00:19:02;4.90;;;4.50;;
12776;SDS011;6452;41.572;23.732;2023-08-06T00:21:28;6.63;;;4.72;;
12776;SDS011;6452;41.572;23.732;2023-08-06T00:23:54;5.57;;;5.18;;
12776;SDS011;6452;41.572;23.732;2023-08-06T00:26:20;5.15;;;4.80;;
12776;SDS011;6452;41.572;23.732;2023-08-06T00:28:46;5.90;;;4.72;;
12776;SDS011;6452;41.572;23.732;2023-08-06T00:31:12;5.40;;;5.00;;
12776;SDS011;6452;41.572;23.732;2023-08-06T00:33:38;5.15;;;4.75;;
12776;SDS011;6452;41.572;23.732;2023-08-06T00:36:04;5.22;;;4.82;;
12776;SDS011;6452;41.572;23.732;2023-08-06T00:38:30;5.25;;;4.85;;
12776;SDS011;6452;41.572;23.732;2023-08-06T00:40:56;4.80;;;4.50;;
12776;SDS011;6452;41.572;23.732;2023-08-06T00:43:22;5.25;;;4.85;;
12776;SDS011;6452;41.572;23.732;2023-08-06T00:45:48;5.30;;;4.90;;
12776;SDS011;6452;41.572;23.732;2023-08-06T00:48:15;4.95;;;4.45;;
12776;SDS011;6452;41.572;23.732;2023-08-06T00:50:41;5.10;;;4.78;;
12776;SDS011;6452;41.572;23.732;2023-08-06T00:53:07;4.63;;;4.32;;
12776;SDS011;6452;41.572;23.732;2023-08-06T00:55:33;5.55;;;5.05;;
12776;SDS011;6452;41.572;23.732;2023-08-06T00:58:00;5.32;;;4.93;;
12776;SDS011;6452;41.572;23.732;2023-08-06T01:00:26;5.78;;;5.20;;
12776;SDS011;6452;41.572;23.732;2023-08-06T01:02:53;5.47;;;5.07;;
12776;SDS011;6452;41.572;23.732;2023-08-06T01:05:20;5.47;;;5.07;;
12776;SDS011;6452;41.572;23.732;2023-08-06T01:07:49;5.13;;;4.72;;
12776;SDS011;6452;41.572;23.732;2023-08-06T01:15:41;5.13;;;4.72;;
12776;SDS011;6452;41.572;23.732;2023-08-06T01:18:06;5.40;;;5.00;;
12776;SDS011;6452;41.572;23.732;2023-08-06T01:20:33;5.82;;;5.32;;
12776;SDS011;6452;41.572;23.732;2023-08-06T01:22:59;5.43;;;5.03;;
12776;SDS011;6452;41.572;23.732;2023-08-06T01:25:32;6.20;;;5.32;;
12776;SDS011;6452;41.572;23.732;2023-08-06T01:28:08;5.40;;;5.10;;
12776;SDS011;6452;41.572;23.732;2023-08-06T01:30:38;5.60;;;5.10;;
12776;SDS011;6452;41.572;23.732;2023-08-06T01:33:06;5.55;;;5.05;;
12776;SDS011;6452;41.572;23.732;2023-08-06T01:35:34;5.18;;;4.78;;
12776;SDS011;6452;41.572;23.732;2023-08-06T01:38:00;6.65;;;5.00;;
12776;SDS011;6452;41.572;23.732;2023-08-06T01:40:27;5.30;;;4.90;;
12776;SDS011;6452;41.572;23.732;2023-08-06T01:42:54;5.15;;;4.75;;
12776;SDS011;6452;41.572;23.732;2023-08-06T01:45:21;5.05;;;4.72;;
12776;SDS011;6452;41.572;23.732;2023-08-06T01:47:47;5.07;;;4.63;;
12776;SDS011;6452;41.572;23.732;2023-08-06T01:50:13;5.22;;;4.72;;
12776;SDS011;6452;41.572;23.732;2023-08-06T01:52:39;5.80;;;5.30;;
12776;SDS011;6452;41.572;23.732;2023-08-06T01:55:05;6.20;;;5.63;;
12776;SDS011;6452;41.572;23.732;2023-08-06T01:57:32;6.22;;;5.72;;
12776;SDS011;6452;41.572;23.732;2023-08-06T01:59:58;5.97;;;5.40;;
12776;SDS011;6452;41.572;23.732;2023-08-06T02:02:23;5.68;;;5.10;;
12776;SDS011;6452;41.572;23.732;2023-08-06T02:04:49;7.45;;;5.57;;
12776;SDS011;6452;41.572;23.732;2023-08-06T02:07:15;5.55;;;5.15;;
12776;SDS011;6452;41.572;23.732;2023-08-06T02:09:42;5.72;;;5.20;;
12776;SDS011;6452;41.572;23.732;2023-08-06T02:12:07;6.03;;;5.43;;
12776;SDS011;6452;41.572;23.732;2023-08-06T02:14:34;5.53;;;5.03;;
12776;SDS011;6452;41.572;23.732;2023-08-06T02:17:00;6.28;;;5.68;;
12776;SDS011;6452;41.572;23.732;2023-08-06T02:19:26;5.63;;;5.10;;
12776;SDS011;6452;41.572;23.732;2023-08-06T02:21:52;7.57;;;6.07;;
12776;SDS011;6452;41.572;23.732;2023-08-06T02:24:18;6.30;;;5.78;;
12776;SDS011;6452;41.572;23.732;2023-08-06T02:26:44;5.63;;;5.10;;
12776;SDS011;6452;41.572;23.732;2023-08-06T02:29:10;6.35;;;5.75;;
12776;SDS011;6452;41.572;23.732;2023-08-06T02:31:36;7.85;;;5.68;;
12776;SDS011;6452;41.572;23.732;2023-08-06T02:34:02;6.28;;;5.68;;
12776;SDS011;6452;41.572;23.732;2023-08-06T02:36:28;6.65;;;5.32;;
12776;SDS011;6452;41.572;23.732;2023-08-06T02:38:55;6.20;;;5.70;;
12776;SDS011;6452;41.572;23.732;2023-08-06T02:41:20;6.05;;;5.60;;
12776;SDS011;6452;41.572;23.732;2023-08-06T02:43:46;6.68;;;6.10;;
12776;SDS011;6452;41.572;23.732;2023-08-06T02:46:13;6.10;;;5.50;;
12776;SDS011;6452;41.572;23.732;2023-08-06T02:48:39;6.55;;;5.95;;
12776;SDS011;6452;41.572;23.732;2023-08-06T02:51:05;6.80;;;6.07;;
12776;SDS011;6452;41.572;23.732;2023-08-06T02:53:31;5.93;;;5.43;;
12776;SDS011;6452;41.572;23.732;2023-08-06T02:55:57;6.40;;;5.38;;
12776;SDS011;6452;41.572;23.732;2023-08-06T02:58:24;7.45;;;6.45;;
12776;SDS011;6452;41.572;23.732;2023-08-06T03:03:25;6.53;;;5.82;;
12776;SDS011;6452;41.572;23.732;2023-08-06T03:05:52;7.82;;;6.07;;
12776;SDS011;6452;41.572;23.732;2023-08-06T03:08:18;6.13;;;5.68;;
12776;SDS011;6452;41.572;23.732;2023-08-06T03:10:48;7.53;;;5.78;;
12776;SDS011;6452;41.572;23.732;2023-08-06T03:13:14;5.85;;;5.40;;
12776;SDS011;6452;41.572;23.732;2023-08-06T03:15:39;5.68;;;5.18;;
12776;SDS011;6452;41.572;23.732;2023-08-06T03:18:06;5.45;;;4.88;;
12776;SDS011;6452;41.572;23.732;2023-08-06T03:20:31;5.95;;;5.45;;
12776;SDS011;6452;41.572;23.732;2023-08-06T03:22:57;5.93;;;5.43;;
12776;SDS011;6452;41.572;23.732;2023-08-06T03:25:23;6.22;;;5.63;;
12776;SDS011;6452;41.572;23.732;2023-08-06T03:27:49;7.18;;;5.95;;
12776;SDS011;6452;41.572;23.732;2023-08-06T03:30:15;6.25;;;5.75;;
12776;SDS011;6452;41.572;23.732;2023-08-06T03:32:41;6.25;;;5.60;;
12776;SDS011;6452;41.572;23.732;2023-08-06T03:35:08;5.88;;;5.32;;
12776;SDS011;6452;41.572;23.732;2023-08-06T03:37:33;5.00;;;4.68;;
12776;SDS011;6452;41.572;23.732;2023-08-06T03:39:59;5.80;;;5.30;;
12776;SDS011;6452;41.572;23.732;2023-08-06T03:42:26;5.15;;;4.70;;
12776;SDS011;6452;41.572;23.732;2023-08-06T03:44:52;5.35;;;4.97;;
12776;SDS011;6452;41.572;23.732;2023-08-06T03:47:18;5.90;;;5.40;;
12776;SDS011;6452;41.572;23.732;2023-08-06T03:49:44;6.07;;;5.10;;
12776;SDS011;6452;41.572;23.732;2023-08-06T03:52:10;5.82;;;5.28;;
12776;SDS011;6452;41.572;23.732;2023-08-06T03:54:36;5.38;;;4.88;;
12776;SDS011;6452;41.572;23.732;2023-08-06T03:57:02;5.90;;;5.40;;
12776;SDS011;6452;41.572;23.732;2023-08-06T03:59:29;6.32;;;5.72;;
12776;SDS011;6452;41.572;23.732;2023-08-06T04:01:55;5.50;;;5.10;;
12776;SDS011;6452;41.572;23.732;2023-08-06T04:04:21;5.30;;;4.90;;
12776;SDS011;6452;41.572;23.732;2023-08-06T04:06:48;6.22;;;5.72;;
12776;SDS011;6452;41.572;23.732;2023-08-06T04:09:14;5.82;;;5.35;;
12776;SDS011;6452;41.572;23.732;2023-08-06T04:11:40;5.65;;;5.20;;
12776;SDS011;6452;41.572;23.732;2023-08-06T04:14:06;7.25;;;5.88;;
12776;SDS011;6452;41.572;23.732;2023-08-06T04:16:32;5.38;;;4.88;;
12776;SDS011;6452;41.572;23.732;2023-08-06T04:18:58;6.00;;;5.50;;
12776;SDS011;6452;41.572;23.732;2023-08-06T04:21:25;5.57;;;5.13;;
12776;SDS011;6452;41.572;23.732;2023-08-06T04:23:50;6.32;;;5.82;;
12776;SDS011;6452;41.572;23.732;2023-08-06T04:26:16;6.07;;;5.57;;
12776;SDS011;6452;41.572;23.732;2023-08-06T04:28:42;6.43;;;5.70;;
12776;SDS011;6452;41.572;23.732;2023-08-06T04:31:08;6.93;;;5.85;;
12776;SDS011;6452;41.572;23.732;2023-08-06T04:33:34;5.88;;;5.40;;
12776;SDS011;6452;41.572;23.732;2023-08-06T04:36:00;5.60;;;5.15;;
12776;SDS011;6452;41.572;23.732;2023-08-06T04:38:26;6.25;;;5.80;;
12776;SDS011;6452;41.572;23.732;2023-08-06T04:40:52;6.60;;;6.00;;
12776;SDS011;6452;41.572;23.732;2023-08-06T04:43:18;5.82;;;5.32;;
12776;SDS011;6452;41.572;23.732;2023-08-06T04:45:47;6.88;;;6.03;;
12776;SDS011;6452;41.572;23.732;2023-08-06T04:48:13;5.72;;;5.32;;
12776;SDS011;6452;41.572;23.732;2023-08-06T04:50:46;5.43;;;5.03;;
12776;SDS011;6452;41.572;23.732;2023-08-06T04:53:13;5.55;;;5.10;;
12776;SDS011;6452;41.572;23.732;2023-08-06T04:55:39;5.60;;;5.10;;
12776;SDS011;6452;41.572;23.732;2023-08-06T04:58:05;5.70;;;5.20;;
12776;SDS011;6452;41.572;23.732;2023-08-06T05:00:31;5.35;;;4.95;;
12776;SDS011;6452;41.572;23.732;2023-08-06T05:02:56;6.88;;;4.93;;
12776;SDS011;6452;41.572;23.732;2023-08-06T05:05:22;4.25;;;3.80;;
12776;SDS011;6452;41.572;23.732;2023-08-06T05:07:49;3.58;;;3.38;;
12776;SDS011;6452;41.572;23.732;2023-08-06T05:10:15;4.18;;;3.88;;
12776;SDS011;6452;41.572;23.732;2023-08-06T05:12:41;3.70;;;3.50;;
12776;SDS011;6452;41.572;23.732;2023-08-06T05:15:07;3.28;;;3.08;;
12776;SDS011;6452;41.572;23.732;2023-08-06T05:17:34;3.10;;;2.90;;
12776;SDS011;6452;41.572;23.732;2023-08-06T05:20:00;2.47;;;2.38;;
12776;SDS011;6452;41.572;23.732;2023-08-06T05:22:26;2.63;;;2.42;;
12776;SDS011;6452;41.572;23.732;2023-08-06T05:24:52;2.92;;;2.72;;
12776;SDS011;6452;41.572;23.732;2023-08-06T05:27:18;3.15;;;2.45;;
12776;SDS011;6452;41.572;23.732;2023-08-06T05:29:45;2.20;;;2.10;;
12776;SDS011;6452;41.572;23.732;2023-08-06T05:32:11;2.63;;;2.42;;
12776;SDS011;6452;41.572;23.732;2023-08-06T05:34:37;3.13;;;2.30;;
12776;SDS011;6452;41.572;23.732;2023-08-06T05:37:03;1.77;;;1.77;;
12776;SDS011;6452;41.572;23.732;2023-08-06T05:39:29;2.15;;;2.05;;
12776;SDS011;6452;41.572;23.732;2023-08-06T05:41:55;1.70;;;1.70;;
12776;SDS011;6452;41.572;23.732;2023-08-06T05:44:21;1.65;;;1.55;;
12776;SDS011;6452;41.572;23.732;2023-08-06T05:46:47;1.70;;;1.70;;
12776;SDS011;6452;41.572;23.732;2023-08-06T05:49:13;1.75;;;1.75;;
12776;SDS011;6452;41.572;23.732;2023-08-06T05:51:39;2.08;;;1.98;;
12776;SDS011;6452;41.572;23.732;2023-08-06T05:54:05;2.05;;;1.95;;
12776;SDS011;6452;41.572;23.732;2023-08-06T05:56:31;1.83;;;1.80;;
12776;SDS011;6452;41.572;23.732;2023-08-06T05:58:57;2.03;;;1.92;;
12776;SDS011;6452;41.572;23.732;2023-08-06T06:01:23;1.85;;;1.75;;
12776;SDS011;6452;41.572;23.732;2023-08-06T06:03:49;2.10;;;2.00;;
12776;SDS011;6452;41.572;23.732;2023-08-06T06:06:15;2.08;;;1.98;;
12776;SDS011;6452;41.572;23.732;2023-08-06T06:08:42;1.90;;;1.80;;
12776;SDS011;6452;41.572;23.732;2023-08-06T06:11:08;1.92;;;1.83;;
12776;SDS011;6452;41.572;23.732;2023-08-06T06:13:34;1.58;;;1.58;;
12776;SDS011;6452;41.572;23.732;2023-08-06T06:16:00;1.48;;;1.45;;
12776;SDS011;6452;41.572;23.732;2023-08-06T06:18:26;1.40;;;1.40;;
12776;SDS011;6452;41.572;23.732;2023-08-06T06:20:52;1.85;;;1.75;;
12776;SDS011;6452;41.572;23.732;2023-08-06T06:23:18;1.65;;;1.52;;
12776;SDS011;6452;41.572;23.732;2023-08-06T06:25:47;1.55;;;1.55;;
12776;SDS011;6452;41.572;23.732;2023-08-06T06:28:13;1.65;;;1.65;;
12776;SDS011;6452;41.572;23.732;2023-08-06T06:30:40;1.50;;;1.50;;
12776;SDS011;6452;41.572;23.732;2023-08-06T06:33:06;1.73;;;1.70;;
12776;SDS011;6452;41.572;23.732;2023-08-06T06:35:32;1.42;;;1.42;;
12776;SDS011;6452;41.572;23.732;2023-08-06T06:37:58;1.40;;;1.40;;
12776;SDS011;6452;41.572;23.732;2023-08-06T06:40:25;1.45;;;1.45;;
12776;SDS011;6452;41.572;23.732;2023-08-06T06:42:51;1.48;;;1.48;;
12776;SDS011;6452;41.572;23.732;2023-08-06T06:45:17;2.00;;;1.90;;
12776;SDS011;6452;41.572;23.732;2023-08-06T06:47:43;2.05;;;1.95;;
12776;SDS011;6452;41.572;23.732;2023-08-06T06:50:09;2.05;;;1.95;;
12776;SDS011;6452;41.572;23.732;2023-08-06T06:52:35;1.52;;;1.50;;
12776;SDS011;6452;41.572;23.732;2023-08-06T06:55:01;1.63;;;1.63;;
12776;SDS011;6452;41.572;23.732;2023-08-06T06:57:27;1.60;;;1.60;;
12776;SDS011;6452;41.572;23.732;2023-08-06T06:59:53;1.70;;;1.60;;
12776;SDS011;6452;41.572;23.732;2023-08-06T07:02:19;1.95;;;1.85;;
12776;SDS011;6452;41.572;23.732;2023-08-06T07:04:45;1.77;;;1.67;;
12776;SDS011;6452;41.572;23.732;2023-08-06T07:07:11;1.30;;;1.30;;
12776;SDS011;6452;41.572;23.732;2023-08-06T07:09:37;2.28;;;2.08;;
12776;SDS011;6452;41.572;23.732;2023-08-06T07:12:03;2.22;;;1.70;;
12776;SDS011;6452;41.572;23.732;2023-08-06T07:14:30;2.00;;;1.90;;
12776;SDS011;6452;41.572;23.732;2023-08-06T07:16:56;1.55;;;1.55;;
12776;SDS011;6452;41.572;23.732;2023-08-06T07:19:22;1.70;;;1.70;;
12776;SDS011;6452;41.572;23.732;2023-08-06T07:21:49;1.80;;;1.70;;
12776;SDS011;6452;41.572;23.732;2023-08-06T07:24:15;1.90;;;1.80;;
12776;SDS011;6452;41.572;23.732;2023-08-06T07:26:41;2.10;;;2.00;;
12776;SDS011;6452;41.572;23.732;2023-08-06T07:29:07;2.03;;;1.92;;
12776;SDS011;6452;41.572;23.732;2023-08-06T07:31:33;1.77;;;1.77;;
12776;SDS011;6452;41.572;23.732;2023-08-06T07:33:58;2.10;;;2.00;;
12776;SDS011;6452;41.572;23.732;2023-08-06T07:36:24;2.85;;;2.10;;
12776;SDS011;6452;41.572;23.732;2023-08-06T07:38:50;2.30;;;2.20;;
12776;SDS011;6452;41.572;23.732;2023-08-06T07:41:21;2.17;;;2.08;;
12776;SDS011;6452;41.572;23.732;2023-08-06T07:43:47;1.70;;;1.70;;
12776;SDS011;6452;41.572;23.732;2023-08-06T07:46:13;1.85;;;1.80;;
12776;SDS011;6452;41.572;23.732;2023-08-06T07:48:39;2.00;;;1.95;;
12776;SDS011;6452;41.572;23.732;2023-08-06T07:51:05;2.03;;;1.92;;
12776;SDS011;6452;41.572;23.732;2023-08-06T07:53:32;3.22;;;2.10;;
12776;SDS011;6452;41.572;23.732;2023-08-06T07:55:58;2.40;;;2.30;;
12776;SDS011;6452;41.572;23.732;2023-08-06T07:58:24;2.10;;;2.00;;
12776;SDS011;6452;41.572;23.732;2023-08-06T08:00:51;2.30;;;2.20;;
12776;SDS011;6452;41.572;23.732;2023-08-06T08:03:17;1.95;;;1.92;;
12776;SDS011;6452;41.572;23.732;2023-08-06T08:05:43;2.17;;;2.08;;
12776;SDS011;6452;41.572;23.732;2023-08-06T08:08:09;2.10;;;2.00;;
12776;SDS011;6452;41.572;23.732;2023-08-06T08:10:35;1.85;;;1.83;;
12776;SDS011;6452;41.572;23.732;2023-08-06T08:13:03;1.90;;;1.80;;
12776;SDS011;6452;41.572;23.732;2023-08-06T08:15:30;1.80;;;1.70;;
12776;SDS011;6452;41.572;23.732;2023-08-06T08:17:56;1.70;;;1.60;;
12776;SDS011;6452;41.572;23.732;2023-08-06T08:20:22;1.50;;;1.50;;
12776;SDS011;6452;41.572;23.732;2023-08-06T08:22:48;1.90;;;1.90;;
12776;SDS011;6452;41.572;23.732;2023-08-06T08:25:14;1.88;;;1.88;;
12776;SDS011;6452;41.572;23.732;2023-08-06T08:27:40;3.65;;;3.35;;
12776;SDS011;6452;41.572;23.732;2023-08-06T08:30:06;3.20;;;3.00;;
12776;SDS011;6452;41.572;23.732;2023-08-06T08:32:33;1.98;;;1.88;;
12776;SDS011;6452;41.572;23.732;2023-08-06T08:34:59;2.35;;;2.15;;
12776;SDS011;6452;41.572;23.732;2023-08-06T08:37:25;1.92;;;1.90;;
12776;SDS011;6452;41.572;23.732;2023-08-06T08:39:51;1.95;;;1.85;;
12776;SDS011;6452;41.572;23.732;2023-08-06T08:42:17;1.95;;;1.88;;
12776;SDS011;6452;41.572;23.732;2023-08-06T08:44:44;1.52;;;1.52;;
12776;SDS011;6452;41.572;23.732;2023-08-06T08:47:10;2.05;;;1.95;;
12776;SDS011;6452;41.572;23.732;2023-08-06T08:49:36;1.83;;;1.83;;
12776;SDS011;6452;41.572;23.732;2023-08-06T08:52:02;1.63;;;1.63;;
12776;SDS011;6452;41.572;23.732;2023-08-06T08:54:31;1.70;;;1.60;;
12776;SDS011;6452;41.572;23.732;2023-08-06T08:56:57;1.50;;;1.50;;
12776;SDS011;6452;41.572;23.732;2023-08-06T08:59:23;1.60;;;1.60;;
12776;SDS011;6452;41.572;23.732;2023-08-06T09:01:50;1.60;;;1.60;;
12776;SDS011;6452;41.572;23.732;2023-08-06T09:04:17;1.75;;;1.60;;
12776;SDS011;6452;41.572;23.732;2023-08-06T09:06:43;1.70;;;1.70;;
12776;SDS011;6452;41.572;23.732;2023-08-06T09:09:12;1.70;;;1.70;;
12776;SDS011;6452;41.572;23.732;2023-08-06T09:11:42;1.42;;;1.42;;
12776;SDS011;6452;41.572;23.732;2023-08-06T09:14:09;1.42;;;1.35;;
12776;SDS011;6452;41.572;23.732;2023-08-06T09:16:35;1.65;;;1.55;;
12776;SDS011;6452;41.572;23.732;2023-08-06T09:19:08;1.50;;;1.50;;
12776;SDS011;6452;41.572;23.732;2023-08-06T09:21:36;1.33;;;1.33;;
12776;SDS011;6452;41.572;23.732;2023-08-06T09:24:07;1.60;;;1.60;;
12776;SDS011;6452;41.572;23.732;2023-08-06T09:26:33;1.40;;;1.40;;
12776;SDS011;6452;41.572;23.732;2023-08-06T09:29:00;1.45;;;1.42;;
12776;SDS011;6452;41.572;23.732;2023-08-06T09:31:32;1.55;;;1.55;;
12776;SDS011;6452;41.572;23.732;2023-08-06T09:33:59;1.50;;;1.50;;
12776;SDS011;6452;41.572;23.732;2023-08-06T09:36:25;1.40;;;1.40;;
12776;SDS011;6452;41.572;23.732;2023-08-06T09:38:51;1.75;;;1.75;;
12776;SDS011;6452;41.572;23.732;2023-08-06T09:41:35;1.33;;;1.33;;
12776;SDS011;6452;41.572;23.732;2023-08-06T09:44:11;1.55;;;1.55;;
12776;SDS011;6452;41.572;23.732;2023-08-06T09:46:41;1.30;;;1.30;;
12776;SDS011;6452;41.572;23.732;2023-08-06T09:49:07;1.23;;;1.23;;
12776;SDS011;6452;41.572;23.732;2023-08-06T09:51:35;1.52;;;1.42;;
12776;SDS011;6452;41.572;23.732;2023-08-06T09:54:05;1.80;;;1.75;;
12776;SDS011;6452;41.572;23.732;2023-08-06T09:56:31;2.10;;;2.00;;
12776;SDS011;6452;41.572;23.732;2023-08-06T09:59:05;1.33;;;1.33;;
12776;SDS011;6452;41.572;23.732;2023-08-06T10:01:33;1.73;;;1.63;;
12776;SDS011;6452;41.572;23.732;2023-08-06T10:04:00;2.25;;;1.77;;
12776;SDS011;6452;41.572;23.732;2023-08-06T10:06:26;1.73;;;1.50;;
12776;SDS011;6452;41.572;23.732;2023-08-06T10:08:53;1.90;;;1.80;;
12776;SDS011;6452;41.572;23.732;2023-08-06T10:11:21;1.70;;;1.60;;
12776;SDS011;6452;41.572;23.732;2023-08-06T10:13:47;1.50;;;1.50;;
12776;SDS011;6452;41.572;23.732;2023-08-06T10:16:14;1.95;;;1.73;;
12776;SDS011;6452;41.572;23.732;2023-08-06T10:18:40;1.40;;;1.40;;
12776;SDS011;6452;41.572;23.732;2023-08-06T10:21:09;1.50;;;1.50;;
12776;SDS011;6452;41.572;23.732;2023-08-06T10:23:35;1.50;;;1.50;;
12776;SDS011;6452;41.572;23.732;2023-08-06T10:26:03;1.67;;;1.50;;
12776;SDS011;6452;41.572;23.732;2023-08-06T10:28:38;4.00;;;1.55;;
12776;SDS011;6452;41.572;23.732;2023-08-06T10:31:04;1.20;;;1.20;;
12776;SDS011;6452;41.572;23.732;2023-08-06T10:33:43;3.85;;;1.45;;
12776;SDS011;6452;41.572;23.732;2023-08-06T10:36:09;1.55;;;1.40;;
12776;SDS011;6452;41.572;23.732;2023-08-06T10:38:43;1.30;;;1.20;;
12776;SDS011;6452;41.572;23.732;2023-08-06T10:41:09;1.02;;;1.02;;
12776;SDS011;6452;41.572;23.732;2023-08-06T10:43:41;1.00;;;1.00;;
12776;SDS011;6452;41.572;23.732;2023-08-06T10:46:11;1.08;;;1.00;;
12776;SDS011;6452;41.572;23.732;2023-08-06T10:48:38;1.52;;;1.00;;
12776;SDS011;6452;41.572;23.732;2023-08-06T10:51:08;1.42;;;1.30;;
12776;SDS011;6452;41.572;23.732;2023-08-06T10:53:34;1.25;;;1.20;;
12776;SDS011;6452;41.572;23.732;2023-08-06T10:56:00;0.90;;;0.90;;
12776;SDS011;6452;41.572;23.732;2023-08-06T10:58:30;0.90;;;0.90;;
12776;SDS011;6452;41.572;23.732;2023-08-06T11:00:56;1.10;;;1.10;;
12776;SDS011;6452;41.572;23.732;2023-08-06T11:03:22;1.45;;;1.35;;
12776;SDS011;6452;41.572;23.732;2023-08-06T11:05:48;0.98;;;0.98;;
12776;SDS011;6452;41.572;23.732;2023-08-06T11:08:27;3.75;;;1.58;;
12776;SDS011;6452;41.572;23.732;2023-08-06T11:11:14;1.48;;;1.38;;
12776;SDS011;6452;41.572;23.732;2023-08-06T11:13:40;1.48;;;1.38;;
12776;SDS011;6452;41.572;23.732;2023-08-06T11:16:06;1.20;;;1.20;;
12776;SDS011;6452;41.572;23.732;2023-08-06T11:18:32;1.17;;;1.13;;
12776;SDS011;6452;41.572;23.732;2023-08-06T11:20:59;1.00;;;1.00;;
12776;SDS011;6452;41.572;23.732;2023-08-06T11:23:26;0.98;;;0.98;;
12776;SDS011;6452;41.572;23.732;2023-08-06T11:25:53;1.10;;;1.10;;
12776;SDS011;6452;41.572;23.732;2023-08-06T11:28:19;0.98;;;0.98;;
12776;SDS011;6452;41.572;23.732;2023-08-06T11:30:47;1.13;;;1.13;;
12776;SDS011;6452;41.572;23.732;2023-08-06T11:33:13;0.93;;;0.93;;
12776;SDS011;6452;41.572;23.732;2023-08-06T11:35:39;1.20;;;1.00;;
12776;SDS011;6452;41.572;23.732;2023-08-06T11:38:05;0.90;;;0.90;;
12776;SDS011;6452;41.572;23.732;2023-08-06T11:40:31;1.63;;;1.23;;
12776;SDS011;6452;41.572;23.732;2023-08-06T11:42:57;0.93;;;0.93;;
12776;SDS011;6452;41.572;23.732;2023-08-06T11:45:24;0.82;;;0.82;;
12776;SDS011;6452;41.572;23.732;2023-08-06T11:47:52;1.05;;;1.05;;
12776;SDS011;6452;41.572;23.732;2023-08-06T11:50:22;1.02;;;1.02;;
12776;SDS011;6452;41.572;23.732;2023-08-06T11:52:48;0.70;;;0.70;;
12776;SDS011;6452;41.572;23.732;2023-08-06T11:55:18;0.90;;;0.90;;
12776;SDS011;6452;41.572;23.732;2023-08-06T11:57:48;1.70;;;0.80;;
12776;SDS011;6452;41.572;23.732;2023-08-06T12:00:14;0.70;;;0.70;;
12776;SDS011;6452;41.572;23.732;2023-08-06T12:02:40;0.70;;;0.70;;
12776;SDS011;6452;41.572;23.732;2023-08-06T12:05:16;1.20;;;1.00;;
12776;SDS011;6452;41.572;23.732;2023-08-06T12:10:08;0.95;;;0.95;;
12776;SDS011;6452;41.572;23.732;2023-08-06T12:12:35;0.98;;;0.98;;
12776;SDS011;6452;41.572;23.732;2023-08-06T12:15:01;0.80;;;0.80;;
12776;SDS011;6452;41.572;23.732;2023-08-06T12:17:26;0.75;;;0.75;;
12776;SDS011;6452;41.572;23.732;2023-08-06T12:19:52;0.80;;;0.80;;
12776;SDS011;6452;41.572;23.732;2023-08-06T12:22:18;0.80;;;0.80;;
12776;SDS011;6452;41.572;23.732;2023-08-06T12:24:45;0.82;;;0.82;;
12776;SDS011;6452;41.572;23.732;2023-08-06T12:27:11;0.80;;;0.80;;
12776;SDS011;6452;41.572;23.732;2023-08-06T12:29:40;0.80;;;0.80;;
12776;SDS011;6452;41.572;23.732;2023-08-06T12:32:06;0.73;;;0.73;;
12776;SDS011;6452;41.572;23.732;2023-08-06T12:34:32;1.02;;;1.02;;
12776;SDS011;6452;41.572;23.732;2023-08-06T12:36:58;0.70;;;0.70;;
12776;SDS011;6452;41.572;23.732;2023-08-06T12:39:24;1.15;;;0.90;;
12776;SDS011;6452;41.572;23.732;2023-08-06T12:41:54;1.00;;;1.00;;
12776;SDS011;6452;41.572;23.732;2023-08-06T12:44:21;0.90;;;0.90;;
12776;SDS011;6452;41.572;23.732;2023-08-06T12:46:46;0.90;;;0.90;;
12776;SDS011;6452;41.572;23.732;2023-08-06T12:49:12;1.25;;;1.25;;
12776;SDS011;6452;41.572;23.732;2023-08-06T12:51:38;4.43;;;1.20;;
12776;SDS011;6452;41.572;23.732;2023-08-06T12:54:05;0.88;;;0.88;;
12776;SDS011;6452;41.572;23.732;2023-08-06T12:56:31;0.90;;;0.90;;
12776;SDS011;6452;41.572;23.732;2023-08-06T12:58:56;1.17;;;1.17;;
12776;SDS011;6452;41.572;23.732;2023-08-06T13:01:23;1.00;;;1.00;;
12776;SDS011;6452;41.572;23.732;2023-08-06T13:03:49;0.80;;;0.80;;
12776;SDS011;6452;41.572;23.732;2023-08-06T13:06:15;0.82;;;0.82;;
12776;SDS011;6452;41.572;23.732;2023-08-06T13:08:41;0.80;;;0.80;;
12776;SDS011;6452;41.572;23.732;2023-08-06T13:11:06;0.95;;;0.95;;
12776;SDS011;6452;41.572;23.732;2023-08-06T13:13:32;1.95;;;0.90;;
12776;SDS011;6452;41.572;23.732;2023-08-06T13:15:59;0.82;;;0.73;;
12776;SDS011;6452;41.572;23.732;2023-08-06T13:18:25;0.70;;;0.70;;
12776;SDS011;6452;41.572;23.732;2023-08-06T13:20:52;0.98;;;0.73;;
12776;SDS011;6452;41.572;23.732;2023-08-06T13:23:19;0.85;;;0.85;;
12776;SDS011;6452;41.572;23.732;2023-08-06T13:25:45;0.90;;;0.90;;
12776;SDS011;6452;41.572;23.732;2023-08-06T13:28:11;0.90;;;0.90;;
12776;SDS011;6452;41.572;23.732;2023-08-06T13:30:37;1.02;;;1.00;;
12776;SDS011;6452;41.572;23.732;2023-08-06T13:33:07;0.88;;;0.88;;
12776;SDS011;6452;41.572;23.732;2023-08-06T13:35:33;0.80;;;0.80;;
12776;SDS011;6452;41.572;23.732;2023-08-06T13:37:58;0.80;;;0.80;;
12776;SDS011;6452;41.572;23.732;2023-08-06T13:40:25;1.30;;;1.00;;
12776;SDS011;6452;41.572;23.732;2023-08-06T13:42:51;0.82;;;0.82;;
12776;SDS011;6452;41.572;23.732;2023-08-06T13:45:17;0.90;;;0.90;;
12776;SDS011;6452;41.572;23.732;2023-08-06T13:47:43;0.80;;;0.80;;
12776;SDS011;6452;41.572;23.732;2023-08-06T13:50:09;0.90;;;0.90;;
12776;SDS011;6452;41.572;23.732;2023-08-06T13:52:36;0.90;;;0.90;;
12776;SDS011;6452;41.572;23.732;2023-08-06T13:55:02;1.00;;;1.00;;
12776;SDS011;6452;41.572;23.732;2023-08-06T13:57:29;1.52;;;1.52;;
12776;SDS011;6452;41.572;23.732;2023-08-06T13:59:55;2.45;;;0.93;;
12776;SDS011;6452;41.572;23.732;2023-08-06T14:02:22;1.00;;;1.00;;
12776;SDS011;6452;41.572;23.732;2023-08-06T14:04:48;1.20;;;1.20;;
12776;SDS011;6452;41.572;23.732;2023-08-06T14:07:14;1.00;;;1.00;;
12776;SDS011;6452;41.572;23.732;2023-08-06T14:09:40;1.05;;;1.05;;
12776;SDS011;6452;41.572;23.732;2023-08-06T14:12:07;1.20;;;1.10;;
12776;SDS011;6452;41.572;23.732;2023-08-06T14:14:33;2.30;;;1.40;;
12776;SDS011;6452;41.572;23.732;2023-08-06T14:16:59;0.90;;;0.90;;
12776;SDS011;6452;41.572;23.732;2023-08-06T14:19:25;0.93;;;0.93;;
12776;SDS011;6452;41.572;23.732;2023-08-06T14:21:51;1.27;;;1.13;;
12776;SDS011;6452;41.572;23.732;2023-08-06T14:24:18;0.90;;;0.90;;
12776;SDS011;6452;41.572;23.732;2023-08-06T14:26:44;1.23;;;1.10;;
12776;SDS011;6452;41.572;23.732;2023-08-06T14:29:10;1.27;;;1.02;;
12776;SDS011;6452;41.572;23.732;2023-08-06T14:31:37;1.00;;;1.00;;
12776;SDS011;6452;41.572;23.732;2023-08-06T14:34:03;1.05;;;1.05;;
12776;SDS011;6452;41.572;23.732;2023-08-06T14:36:29;1.20;;;1.20;;
12776;SDS011;6452;41.572;23.732;2023-08-06T14:38:55;1.38;;;0.98;;
12776;SDS011;6452;41.572;23.732;2023-08-06T14:41:21;1.00;;;1.00;;
12776;SDS011;6452;41.572;23.732;2023-08-06T14:43:47;0.95;;;0.95;;
12776;SDS011;6452;41.572;23.732;2023-08-06T14:46:13;1.00;;;1.00;;
12776;SDS011;6452;41.572;23.732;2023-08-06T14:48:39;1.00;;;1.00;;
12776;SDS011;6452;41.572;23.732;2023-08-06T14:51:08;0.95;;;0.95;;
12776;SDS011;6452;41.572;23.732;2023-08-06T14:53:33;0.90;;;0.90;;
12776;SDS011;6452;41.572;23.732;2023-08-06T14:56:00;0.90;;;0.90;;